Time;durP1;ratioP1;P1;durP2;ratioP2;P2;SDS_P1;SDS_P2;PMS_P1;PMS_P2;Temp;Humidity;BMP_temperature;BMP_pressure;BME280_temperature;BME280_humidity;BME280_pressure;Samples;Min_cycle;Max_cycle;Signal;HPM_P1;HPM_P2
2023/08/07 00:00:53;;;;;;;2.00;1.50;;;;;;;26.70;40.90;94513.13;6142140;28;109133;-67
2023/08/07 00:03:56;;;;;;;2.40;1.10;;;;;;;26.72;40.89;94522.41;6125690;28;109204;-67
2023/08/07 00:07:01;;;;;;;2.70;1.00;;;;;;;26.73;40.78;94507.88;6154679;28;109446;-67
2023/08/07 00:10:04;;;;;;;1.30;1.10;;;;;;;26.74;40.43;94516.69;6151347;28;109754;-67
2023/08/07 00:13:07;;;;;;;1.30;1.10;;;;;;;26.72;40.66;94522.41;6133699;28;110176;-67
2023/08/07 00:16:11;;;;;;;1.67;1.20;;;;;;;26.69;40.80;94527.69;6123005;28;109162;-67
2023/08/07 00:19:14;;;;;;;1.60;1.20;;;;;;;26.63;40.46;94523.69;6138505;28;109617;-65
2023/08/07 00:22:19;;;;;;;1.67;1.10;;;;;;;26.65;40.41;94519.53;6138137;28;109125;-67
2023/08/07 00:25:22;;;;;;;1.40;1.10;;;;;;;26.66;41.15;94513.06;6133824;28;109140;-67
2023/08/07 00:28:25;;;;;;;1.40;1.13;;;;;;;26.68;40.29;94516.16;6124329;28;110298;-67
2023/08/07 00:31:30;;;;;;;1.75;1.10;;;;;;;26.68;40.33;94516.16;6148719;28;109029;-67
2023/08/07 00:34:34;;;;;;;1.30;1.10;;;;;;;26.71;40.39;94514.69;6133566;28;109194;-67
2023/08/07 00:37:38;;;;;;;1.50;1.10;;;;;;;26.67;40.55;94524.56;6138440;28;111602;-65
2023/08/07 00:40:42;;;;;;;1.85;1.30;;;;;;;26.66;41.09;94534.53;6132884;28;108978;-60
2023/08/07 00:43:45;;;;;;;2.30;1.50;;;;;;;26.67;41.00;94546.81;6135364;28;109449;-61
2023/08/07 00:46:48;;;;;;;1.50;1.20;;;;;;;26.67;40.80;94552.19;6157082;28;109161;-60
2023/08/07 00:49:51;;;;;;;1.35;1.10;;;;;;;26.64;41.05;94550.19;6132385;28;109936;-62
2023/08/07 00:52:56;;;;;;;1.50;1.15;;;;;;;26.65;40.50;94549.06;6135021;28;109030;-61
2023/08/07 00:56:00;;;;;;;2.15;1.40;;;;;;;26.63;40.77;94551.31;6133616;28;109854;-61
2023/08/07 00:59:03;;;;;;;1.90;1.20;;;;;;;26.60;40.68;94559.28;6140640;28;110639;-62
2023/08/07 01:02:07;;;;;;;1.50;1.20;;;;;;;26.59;41.04;94558.50;6138169;28;109143;-62
2023/08/07 01:05:10;;;;;;;1.30;1.10;;;;;;;26.61;40.28;94556.25;6152581;28;109322;-60
2023/08/07 01:08:15;;;;;;;1.70;1.38;;;;;;;26.56;40.81;94553.81;6139368;28;109289;-62
2023/08/07 01:11:23;;;;;;;1.90;1.30;;;;;;;26.58;40.80;94564.97;6128175;28;110485;-60
2023/08/07 01:14:34;;;;;;;1.98;1.30;;;;;;;26.58;40.69;94581.09;6127540;28;109208;-61
2023/08/07 01:17:38;;;;;;;1.70;1.40;;;;;;;26.55;40.48;94581.78;6132660;28;109371;-61
2023/08/07 01:20:41;;;;;;;1.70;1.30;;;;;;;26.53;40.58;94578.63;6133259;28;109430;-60
2023/08/07 01:23:46;;;;;;;1.80;1.60;;;;;;;26.52;40.42;94582.44;6128415;28;110557;-63
2023/08/07 01:26:51;;;;;;;2.20;1.50;;;;;;;26.51;40.35;94565.56;6162128;28;109249;-61
2023/08/07 01:30:00;;;;;;;1.43;1.33;;;;;;;26.54;41.22;94566.78;6156752;28;111102;-61
2023/08/07 01:33:14;;;;;;;2.53;1.80;;;;;;;26.53;40.72;94565.22;6151642;28;108927;-61
2023/08/07 01:36:18;;;;;;;2.33;1.50;;;;;;;26.51;40.38;94562.09;6110957;28;109155;-62
2023/08/07 01:39:24;;;;;;;1.80;1.57;;;;;;;26.50;40.92;94560.56;6137283;28;109509;-60
2023/08/07 01:42:28;;;;;;;1.77;1.67;;;;;;;26.44;40.81;94562.72;6137413;28;109330;-60
2023/08/07 01:45:31;;;;;;;2.00;1.80;;;;;;;26.43;40.66;94563.84;6136615;28;109784;-60
2023/08/07 01:48:34;;;;;;;2.17;1.80;;;;;;;26.42;40.68;94569.56;6140002;28;110367;-60
2023/08/07 01:51:37;;;;;;;2.22;2.03;;;;;;;26.40;40.92;94585.22;6144362;28;109351;-76
2023/08/07 01:54:42;;;;;;;2.80;2.20;;;;;;;26.38;40.40;94576.72;6157878;28;111663;-75
2023/08/07 01:57:45;;;;;;;2.00;1.80;;;;;;;26.36;40.61;94581.66;6144324;28;110079;-75
2023/08/07 02:00:48;;;;;;;2.10;1.90;;;;;;;26.22;41.06;94582.88;6151342;28;109658;-75
2023/08/07 02:03:51;;;;;;;2.10;1.90;;;;;;;26.24;40.71;94574.47;6158392;28;109174;-75
2023/08/07 02:06:54;;;;;;;1.87;1.70;;;;;;;26.26;40.81;94581.03;6158616;28;109484;-75
2023/08/07 02:09:59;;;;;;;2.35;1.90;;;;;;;26.29;40.87;94582.25;6141835;28;110186;-77
2023/08/07 02:13:02;;;;;;;2.30;2.10;;;;;;;26.27;40.92;94587.97;6144485;28;109147;-70
2023/08/07 02:16:05;;;;;;;2.10;1.90;;;;;;;26.27;40.68;94587.97;6138207;28;109292;-74
2023/08/07 02:19:09;;;;;;;2.50;1.90;;;;;;;26.26;40.57;94591.78;6156088;28;109386;-71
2023/08/07 02:22:12;;;;;;;2.10;1.80;;;;;;;26.23;40.52;94592.47;6143431;28;109220;-76
2023/08/07 02:25:17;;;;;;;2.20;1.80;;;;;;;26.25;40.60;94600.94;6137453;28;109394;-76
2023/08/07 02:28:20;;;;;;;2.08;1.60;;;;;;;26.23;40.71;94599.75;6135824;28;109789;-76
2023/08/07 02:31:23;;;;;;;2.10;1.90;;;;;;;26.22;41.44;94601.66;6140743;28;109348;-77
2023/08/07 02:34:26;;;;;;;1.98;1.70;;;;;;;26.20;40.69;94605.75;6148379;28;109475;-77
2023/08/07 02:37:29;;;;;;;2.30;2.00;;;;;;;26.17;41.20;94609.91;6147142;28;110248;-77
2023/08/07 02:40:35;;;;;;;3.15;2.17;;;;;;;26.18;40.78;94608.78;6145096;28;109173;-77
2023/08/07 02:43:38;;;;;;;3.97;2.90;;;;;;;26.19;41.06;94612.25;6145935;28;109288;-76
2023/08/07 02:46:41;;;;;;;2.77;2.57;;;;;;;26.14;40.98;94605.25;6148591;28;109718;-76
2023/08/07 02:49:44;;;;;;;2.40;2.10;;;;;;;26.12;40.66;94606.72;6159309;28;109302;-76
2023/08/07 02:52:47;;;;;;;2.53;2.20;;;;;;;26.08;40.93;94601.25;6144492;28;109309;-76
2023/08/07 02:55:52;;;;;;;2.77;2.53;;;;;;;26.08;41.08;94611.97;6125687;28;109483;-76
2023/08/07 02:58:58;;;;;;;7.25;6.55;;;;;;;26.08;41.09;94609.31;6136275;28;109332;-76
2023/08/07 03:02:01;;;;;;;13.00;11.90;;;;;;;26.12;41.13;94617.44;6155055;28;109164;-76
2023/08/07 03:05:04;;;;;;;8.70;8.00;;;;;;;26.09;40.84;94626.16;6135372;28;109273;-76
2023/08/07 03:08:07;;;;;;;6.50;5.90;;;;;;;26.09;40.94;94623.50;6154233;28;110267;-76
2023/08/07 03:11:12;;;;;;;4.80;4.40;;;;;;;26.04;41.21;94623.72;6153598;28;109119;-76
2023/08/07 03:14:15;;;;;;;4.50;4.10;;;;;;;26.06;40.72;94624.19;6146024;28;109298;-76
2023/08/07 03:17:20;;;;;;;6.57;6.07;;;;;;;26.06;40.99;94634.91;6140582;28;109883;-75
2023/08/07 03:20:23;;;;;;;8.65;7.85;;;;;;;26.07;40.94;94633.78;6155492;28;109069;-76
2023/08/07 03:23:27;;;;;;;5.38;4.50;;;;;;;26.03;41.40;94651.66;6146080;28;108876;-75
2023/08/07 03:26:32;;;;;;;4.00;3.70;;;;;;;25.96;40.98;94652.22;6145993;28;109028;-75
2023/08/07 03:29:35;;;;;;;4.40;3.23;;;;;;;25.96;41.05;94653.00;6126700;28;109201;-77
2023/08/07 03:32:38;;;;;;;3.90;3.50;;;;;;;25.97;40.91;94649.19;6150473;28;109165;-76
2023/08/07 03:35:41;;;;;;;5.18;4.68;;;;;;;25.96;40.63;94662.94;6150612;28;109768;-76
2023/08/07 03:38:44;;;;;;;8.85;8.05;;;;;;;25.96;41.32;94654.91;6130039;28;110175;-75
2023/08/07 03:41:50;;;;;;;4.80;4.40;;;;;;;25.90;40.91;94658.94;6131251;28;109386;-76
2023/08/07 03:44:53;;;;;;;3.92;3.50;;;;;;;25.90;40.74;94664.31;6134588;28;109160;-75
2023/08/07 03:47:56;;;;;;;3.50;3.15;;;;;;;25.88;41.31;94667.31;6154201;28;110158;-77
2023/08/07 03:51:08;;;;;;;3.92;2.70;;;;;;;25.85;40.99;94667.19;6147915;28;109060;-75
2023/08/07 03:54:11;;;;;;;4.43;2.90;;;;;;;25.85;41.25;94672.56;6147818;28;109139;-75
2023/08/07 03:57:16;;;;;;;3.10;2.80;;;;;;;25.89;40.71;94679.59;6153060;28;109742;-76
2023/08/07 04:00:20;;;;;;;3.53;3.15;;;;;;;25.88;40.90;94682.63;6158362;28;109293;-71
2023/08/07 04:03:23;;;;;;;6.00;3.30;;;;;;;25.80;41.09;94686.22;6139652;28;110271;-66
2023/08/07 04:06:28;;;;;;;5.20;3.05;;;;;;;25.47;41.87;94689.81;6145214;28;109129;-65
2023/08/07 04:09:32;;;;;;;5.50;3.10;;;;;;;24.94;42.97;94691.53;6158673;28;110957;-65
2023/08/07 04:12:37;;;;;;;4.57;3.30;;;;;;;25.25;42.47;94693.69;6137225;28;109467;-66
2023/08/07 04:15:40;;;;;;;5.90;5.30;;;;;;;25.66;41.77;94691.91;6125964;28;109179;-64
2023/08/07 04:18:43;;;;;;;8.13;7.50;;;;;;;25.75;41.98;94689.91;6136412;28;109379;-63
2023/08/07 04:21:46;;;;;;;7.82;7.07;;;;;;;25.91;41.58;94700.72;6133310;28;109207;-65
2023/08/07 04:24:49;;;;;;;9.40;8.50;;;;;;;25.90;41.59;94701.84;6123821;28;109515;-67
2023/08/07 04:27:55;;;;;;;6.60;5.50;;;;;;;25.66;42.08;94700.75;6156963;28;109305;-63
2023/08/07 04:30:58;;;;;;;4.90;4.40;;;;;;;25.62;42.79;94709.78;6157378;28;109067;-63
2023/08/07 04:34:01;;;;;;;4.70;4.13;;;;;;;25.72;41.89;94706.66;6157250;28;109736;-64
2023/08/07 04:37:06;;;;;;;4.10;3.80;;;;;;;25.72;41.90;94705.88;6130745;28;110054;-64
2023/08/07 04:40:10;;;;;;;3.30;3.00;;;;;;;25.66;41.11;94703.41;6133205;28;110221;-64
2023/08/07 04:43:15;;;;;;;3.33;2.70;;;;;;;25.43;41.39;94705.00;6133500;28;109210;-64
2023/08/07 04:46:18;;;;;;;4.80;2.60;;;;;;;25.50;42.20;94705.22;6133408;28;110109;-64
2023/08/07 04:49:21;;;;;;;3.63;2.55;;;;;;;25.40;41.50;94713.72;6138653;28;111487;-63
2023/08/07 04:52:24;;;;;;;3.58;2.50;;;;;;;25.21;41.77;94708.09;6155588;28;110331;-64
2023/08/07 04:55:28;;;;;;;2.90;2.70;;;;;;;25.24;41.52;94710.88;6157180;28;109130;-63
2023/08/07 04:58:33;;;;;;;3.30;2.97;;;;;;;25.48;41.09;94717.38;6141580;28;109193;-63
2023/08/07 05:01:36;;;;;;;4.50;3.95;;;;;;;25.61;41.52;94709.00;6134786;28;109152;-64
2023/08/07 05:04:39;;;;;;;6.03;3.70;;;;;;;25.71;41.17;94710.47;6137953;28;110039;-64
2023/08/07 05:07:43;;;;;;;4.80;3.70;;;;;;;25.73;41.07;94702.88;6151815;28;109327;-63
2023/08/07 05:10:46;;;;;;;13.47;6.50;;;;;;;25.77;42.10;94703.75;6124938;28;109248;-63
2023/08/07 05:13:50;;;;;;;7.77;6.50;;;;;;;25.82;42.53;94700.06;6132914;28;109499;-66
2023/08/07 05:16:53;;;;;;;4.60;4.00;;;;;;;25.79;42.42;94701.50;6147423;28;109160;-64
2023/08/07 05:19:57;;;;;;;3.70;3.40;;;;;;;25.79;41.38;94698.84;6130254;28;109183;-63
2023/08/07 05:23:00;;;;;;;4.22;3.20;;;;;;;25.79;40.50;94701.50;6121369;28;109355;-64
2023/08/07 05:26:03;;;;;;;3.30;3.00;;;;;;;25.73;40.85;94688.69;6140490;28;109301;-63
2023/08/07 05:29:07;;;;;;;3.72;3.00;;;;;;;25.78;41.16;94693.81;6136905;28;109642;-65
2023/08/07 05:32:11;;;;;;;8.45;5.22;;;;;;;25.87;41.93;94689.09;6143324;28;109286;-64
2023/08/07 05:35:14;;;;;;;3.87;2.97;;;;;;;25.85;40.60;94691.31;6148067;28;109176;-64
2023/08/07 05:38:17;;;;;;;5.45;3.30;;;;;;;25.78;41.85;94691.91;6138450;28;109265;-64
2023/08/07 05:41:20;;;;;;;4.20;2.90;;;;;;;25.86;40.68;94696.34;6132181;28;109185;-63
2023/08/07 05:44:25;;;;;;;3.47;2.80;;;;;;;25.83;40.29;94682.84;6138892;28;109815;-64
2023/08/07 05:47:28;;;;;;;2.80;2.40;;;;;;;25.84;40.60;94687.09;6140033;28;109219;-65
2023/08/07 05:50:31;;;;;;;4.40;2.40;;;;;;;25.86;39.59;94700.94;6134899;28;109709;-63
2023/08/07 05:53:36;;;;;;;3.53;2.58;;;;;;;25.84;39.85;94695.13;6134066;28;110067;-62
2023/08/07 05:56:39;;;;;;;3.38;2.70;;;;;;;25.86;39.80;94699.03;6134472;28;109188;-65
2023/08/07 05:59:44;;;;;;;3.53;2.70;;;;;;;25.90;39.41;94697.25;6145202;28;109338;-64
2023/08/07 06:02:47;;;;;;;3.95;2.78;;;;;;;26.02;39.26;94693.78;6149247;28;109161;-65
2023/08/07 06:05:50;;;;;;;3.45;2.67;;;;;;;26.14;39.51;94690.28;6143841;28;109171;-63
2023/08/07 06:08:53;;;;;;;4.80;2.70;;;;;;;26.10;39.32;94700.13;6141909;28;109287;-63
2023/08/07 06:11:56;;;;;;;4.60;2.80;;;;;;;26.06;39.57;94694.69;6136386;28;109275;-64
2023/08/07 06:15:01;;;;;;;2.40;2.20;;;;;;;26.13;39.76;94694.88;6138748;28;109362;-65
2023/08/07 06:18:05;;;;;;;3.03;2.20;;;;;;;26.15;39.72;94681.91;6140248;28;108902;-65
2023/08/07 06:21:10;;;;;;;2.60;2.30;;;;;;;26.25;39.44;94691.38;6138044;28;109622;-64
2023/08/07 06:24:13;;;;;;;2.73;2.30;;;;;;;26.23;39.23;94689.03;6134107;28;109126;-63
2023/08/07 06:27:16;;;;;;;2.67;2.20;;;;;;;26.19;39.05;94687.34;6147324;28;109374;-63
2023/08/07 06:30:21;;;;;;;2.40;2.20;;;;;;;26.16;38.81;94685.34;6140298;28;109454;-71
2023/08/07 06:33:24;;;;;;;2.80;2.10;;;;;;;26.19;38.41;94685.44;6139581;28;109244;-71
2023/08/07 06:36:28;;;;;;;3.42;2.10;;;;;;;26.34;38.86;94675.13;6143598;28;109263;-70
2023/08/07 06:39:32;;;;;;;3.17;2.10;;;;;;;26.22;38.61;94686.69;6135880;28;109350;-70
2023/08/07 06:42:35;;;;;;;2.40;2.20;;;;;;;26.28;38.24;94680.75;6138876;28;109207;-69
2023/08/07 06:45:39;;;;;;;2.80;2.60;;;;;;;26.23;38.33;94686.34;6139299;28;109108;-69
2023/08/07 06:48:42;;;;;;;3.10;2.20;;;;;;;26.17;37.86;94685.03;6133166;28;109099;-70
2023/08/07 06:51:45;;;;;;;2.60;2.30;;;;;;;26.29;37.61;94692.25;6129700;28;109159;-66
2023/08/07 06:54:49;;;;;;;2.25;2.05;;;;;;;26.25;36.99;94691.38;6107787;28;109372;-69
2023/08/07 06:57:52;;;;;;;2.00;1.90;;;;;;;26.28;37.10;94686.09;6141176;28;109127;-70
2023/08/07 07:00:57;;;;;;;5.00;1.53;;;;;;;26.38;36.31;94692.09;6140877;28;109786;-70
2023/08/07 07:04:00;;;;;;;2.63;1.90;;;;;;;26.34;36.11;94694.69;6147873;28;109379;-69
2023/08/07 07:07:04;;;;;;;1.98;1.65;;;;;;;26.34;36.45;94693.91;6150825;28;109277;-70
2023/08/07 07:10:09;;;;;;;1.93;1.53;;;;;;;26.42;36.38;94701.03;6134188;28;109273;-71
2023/08/07 07:13:12;;;;;;;1.90;1.70;;;;;;;26.38;36.44;94681.34;6151500;28;109842;-71
2023/08/07 07:16:16;;;;;;;2.53;1.70;;;;;;;26.45;36.19;94681.56;6127670;28;110400;-68
2023/08/07 07:19:20;;;;;;;1.70;1.40;;;;;;;26.37;35.91;94680.56;6134469;28;110183;-68
2023/08/07 07:22:23;;;;;;;1.70;1.50;;;;;;;26.42;35.69;94683.03;6133467;28;109146;-69
2023/08/07 07:25:26;;;;;;;1.90;1.60;;;;;;;26.49;35.50;94685.13;6135119;28;109399;-68
2023/08/07 07:28:29;;;;;;;2.88;1.50;;;;;;;26.50;36.02;94682.09;6142198;28;110372;-69
2023/08/07 07:31:33;;;;;;;1.90;1.40;;;;;;;26.41;35.61;94676.13;6137177;28;110522;-71
2023/08/07 07:34:37;;;;;;;2.03;1.50;;;;;;;26.39;35.01;94681.03;6135229;28;112329;-69
2023/08/07 07:37:40;;;;;;;1.98;1.40;;;;;;;26.47;35.09;94682.78;6129044;28;109201;-68
2023/08/07 07:40:43;;;;;;;2.58;1.50;;;;;;;26.52;35.76;94679.06;6128520;28;109427;-70
2023/08/07 07:43:47;;;;;;;2.20;1.40;;;;;;;26.59;35.58;94690.00;6134468;28;108757;-69
2023/08/07 07:46:52;;;;;;;1.65;1.55;;;;;;;26.60;35.02;94685.41;6138406;28;109173;-69
2023/08/07 07:50:07;;;;;;;2.80;1.63;;;;;;;26.49;35.55;94687.81;6138798;28;109655;-69
2023/08/07 07:53:10;;;;;;;2.47;1.60;;;;;;;26.42;35.66;94687.63;6134231;28;109563;-69
2023/08/07 07:56:13;;;;;;;1.92;1.50;;;;;;;26.76;36.41;94684.34;6132080;28;109382;-70
2023/08/07 07:59:16;;;;;;;1.92;1.50;;;;;;;26.90;35.87;94688.53;6136217;28;109345;-69
2023/08/07 08:02:24;;;;;;;5.22;1.50;;;;;;;26.96;35.94;94685.22;6123634;28;109424;-70
2023/08/07 08:05:27;;;;;;;1.85;1.70;;;;;;;26.99;36.17;94683.75;6150136;28;110311;-69
2023/08/07 08:08:30;;;;;;;3.33;1.70;;;;;;;26.97;36.37;94673.38;6143697;28;109429;-69
2023/08/07 08:11:33;;;;;;;2.67;1.80;;;;;;;27.01;36.73;94681.50;6128938;28;110093;-69
2023/08/07 08:14:36;;;;;;;4.57;1.50;;;;;;;27.26;35.88;94679.47;6117247;28;110956;-70
2023/08/07 08:17:58;;;;;;;2.53;1.70;;;;;;;27.09;35.63;94678.66;6144689;28;109360;-70
2023/08/07 08:21:01;;;;;;;2.45;1.90;;;;;;;27.01;36.51;94678.81;6140325;28;109146;-70
2023/08/07 08:24:05;;;;;;;4.22;2.10;;;;;;;26.88;35.97;94672.75;6112050;28;109306;-70
2023/08/07 08:27:08;;;;;;;3.75;2.08;;;;;;;26.84;35.32;94666.50;6137738;28;109214;-71
2023/08/07 08:30:12;;;;;;;2.10;1.90;;;;;;;26.92;35.79;94667.47;6133035;28;109284;-70
2023/08/07 08:33:17;;;;;;;1.90;1.70;;;;;;;26.93;35.77;94667.13;6144804;28;109219;-71
2023/08/07 08:36:20;;;;;;;2.88;1.88;;;;;;;26.94;35.31;94665.22;6147752;28;110768;-69
2023/08/07 08:39:23;;;;;;;2.95;1.90;;;;;;;26.77;35.35;94663.66;6128838;28;110504;-69
2023/08/07 08:42:27;;;;;;;2.97;1.60;;;;;;;26.62;34.89;94662.47;6131230;28;109187;-69
2023/08/07 08:45:33;;;;;;;1.80;1.67;;;;;;;26.65;35.78;94661.81;6129548;28;112076;-70
2023/08/07 08:48:40;;;;;;;3.35;1.90;;;;;;;26.74;34.48;94657.06;6118936;28;109411;-71
2023/08/07 08:51:44;;;;;;;5.28;3.00;;;;;;;26.78;35.08;94655.25;6129580;28;109150;-64
2023/08/07 08:54:49;;;;;;;3.23;2.93;;;;;;;26.81;34.89;94654.56;6138428;28;109263;-64
2023/08/07 08:57:53;;;;;;;3.27;3.00;;;;;;;27.02;34.36;94646.25;6116161;28;109266;-64
2023/08/07 09:00:56;;;;;;;3.33;3.00;;;;;;;27.17;34.74;94633.94;6129384;28;109261;-63
2023/08/07 09:04:04;;;;;;;5.70;3.87;;;;;;;27.33;34.70;94637.41;6127988;28;109240;-64
2023/08/07 09:07:07;;;;;;;3.63;3.00;;;;;;;27.02;34.52;94627.44;6132766;28;110339;-63
2023/08/07 09:10:12;;;;;;;2.63;2.43;;;;;;;26.97;33.83;94619.66;6107406;28;109206;-64
2023/08/07 09:13:16;;;;;;;2.20;2.00;;;;;;;26.90;34.44;94627.56;6133765;28;109329;-65
2023/08/07 09:16:19;;;;;;;2.50;1.90;;;;;;;26.89;34.35;94628.69;6134033;28;108824;-63
2023/08/07 09:19:24;;;;;;;2.03;1.57;;;;;;;26.95;33.93;94631.88;6149937;28;109116;-66
2023/08/07 09:22:27;;;;;;;1.83;1.63;;;;;;;26.92;34.18;94629.88;6106840;28;110168;-63
2023/08/07 09:25:32;;;;;;;2.40;2.10;;;;;;;26.99;34.13;94622.75;6119352;28;108920;-64
2023/08/07 09:28:36;;;;;;;4.67;2.43;;;;;;;27.07;34.17;94623.72;6138769;28;111869;-65
2023/08/07 09:31:39;;;;;;;3.67;1.70;;;;;;;27.03;33.63;94622.84;6137544;28;109163;-63
2023/08/07 09:34:44;;;;;;;2.17;1.83;;;;;;;27.10;33.94;94620.34;6131904;28;109173;-64
2023/08/07 09:37:47;;;;;;;2.80;2.00;;;;;;;27.27;34.33;94609.25;6131078;28;109178;-64
2023/08/07 09:40:50;;;;;;;3.00;1.83;;;;;;;27.11;34.13;94609.25;6120209;28;109155;-65
2023/08/07 09:43:54;;;;;;;2.20;1.50;;;;;;;27.04;34.00;94602.91;6114706;28;110227;-63
2023/08/07 09:46:57;;;;;;;1.57;1.40;;;;;;;27.22;34.70;94609.50;6138125;28;109285;-64
2023/08/07 09:50:02;;;;;;;2.93;1.90;;;;;;;27.09;34.43;94605.34;6136952;28;110495;-66
2023/08/07 09:53:05;;;;;;;2.23;1.80;;;;;;;26.99;34.47;94611.25;6121557;28;109204;-63
2023/08/07 09:56:08;;;;;;;1.80;1.70;;;;;;;27.04;34.38;94614.44;6114408;28;109523;-63
2023/08/07 09:59:12;;;;;;;3.33;1.57;;;;;;;27.06;34.39;94616.81;6124761;28;108969;-62
2023/08/07 10:02:15;;;;;;;2.23;1.53;;;;;;;27.09;34.83;94608.03;6155290;28;109784;-64
2023/08/07 10:05:20;;;;;;;1.90;1.70;;;;;;;27.21;34.95;94602.53;6155586;28;109378;-65
2023/08/07 10:08:24;;;;;;;3.80;1.70;;;;;;;27.16;34.44;94605.50;6155624;28;109382;-63
2023/08/07 10:11:28;;;;;;;2.23;1.57;;;;;;;27.08;34.95;94611.84;6146108;28;109405;-64
2023/08/07 10:14:31;;;;;;;2.27;1.70;;;;;;;27.07;34.21;94613.00;6138058;28;109123;-64
2023/08/07 10:17:34;;;;;;;1.70;1.50;;;;;;;26.97;34.36;94605.44;6127120;28;109497;-64
2023/08/07 10:20:43;;;;;;;5.37;1.70;;;;;;;26.87;33.89;94596.78;6138781;28;109390;-63
2023/08/07 10:23:49;;;;;;;4.13;1.70;;;;;;;26.84;34.00;94604.75;6123250;28;109078;-64
2023/08/07 10:26:53;;;;;;;5.67;1.67;;;;;;;27.00;34.28;94602.06;6119119;28;109239;-62
2023/08/07 10:30:00;;;;;;;2.20;1.77;;;;;;;27.37;33.18;94589.13;6107959;28;109618;-63
2023/08/07 10:33:06;;;;;;;1.40;1.23;;;;;;;27.59;33.23;94596.53;6160221;28;108938;-63
2023/08/07 10:36:11;;;;;;;1.60;1.30;;;;;;;27.71;33.82;94600.97;6152564;28;109039;-63
2023/08/07 10:39:16;;;;;;;1.60;1.50;;;;;;;27.77;34.01;94603.06;6132745;28;109333;-65
2023/08/07 10:42:20;;;;;;;3.50;1.50;;;;;;;27.82;34.13;94598.53;6128891;28;110152;-63
2023/08/07 10:45:24;;;;;;;1.50;1.40;;;;;;;27.83;33.92;94587.41;6113163;28;109617;-61
2023/08/07 10:48:27;;;;;;;3.40;1.50;;;;;;;27.89;33.69;94588.72;6137200;28;109420;-62
2023/08/07 10:51:32;;;;;;;1.60;1.50;;;;;;;27.85;34.55;94593.19;6124638;28;109465;-61
2023/08/07 10:54:42;;;;;;;2.13;1.33;;;;;;;27.86;34.28;94586.72;6136830;28;109217;-62
2023/08/07 10:57:48;;;;;;;1.87;1.57;;;;;;;27.86;34.76;94584.03;6148582;28;108889;-62
2023/08/07 11:00:52;;;;;;;1.43;1.20;;;;;;;27.87;34.73;94574.81;6154272;28;109526;-62
2023/08/07 11:03:56;;;;;;;1.67;1.20;;;;;;;27.87;34.40;94588.28;6151708;28;110093;-62
2023/08/07 11:07:00;;;;;;;1.60;1.40;;;;;;;27.86;34.23;94573.28;6160625;28;111743;-61
2023/08/07 11:10:05;;;;;;;1.40;1.30;;;;;;;27.86;34.87;94578.66;6129323;28;110217;-61
2023/08/07 11:13:08;;;;;;;1.50;1.40;;;;;;;27.89;35.03;94569.91;6132749;28;110717;-64
2023/08/07 11:16:12;;;;;;;1.90;1.23;;;;;;;27.87;34.80;94566.75;6144789;28;109401;-66
2023/08/07 11:19:17;;;;;;;1.20;1.10;;;;;;;27.90;34.39;94563.38;6136671;28;109041;-64
2023/08/07 11:22:22;;;;;;;1.47;1.37;;;;;;;27.89;35.16;94551.06;6135485;28;109447;-66
2023/08/07 11:25:27;;;;;;;1.70;1.60;;;;;;;27.92;35.23;94544.97;6126326;28;109180;-65
2023/08/07 11:28:30;;;;;;;1.30;1.20;;;;;;;27.91;35.16;94529.97;6160499;28;110330;-65
2023/08/07 11:31:33;;;;;;;1.90;1.70;;;;;;;27.97;34.72;94544.69;6136369;28;110341;-65
2023/08/07 11:34:37;;;;;;;1.80;1.40;;;;;;;27.91;35.43;94538.03;6119926;28;110137;-65
2023/08/07 11:37:48;;;;;;;1.77;1.33;;;;;;;27.94;35.01;94536.56;6125686;28;109151;-65
2023/08/07 11:40:54;;;;;;;1.70;1.60;;;;;;;27.93;35.68;94533.09;6136339;28;109818;-66
2023/08/07 11:43:58;;;;;;;2.07;1.60;;;;;;;27.92;35.74;94533.44;6160887;28;111572;-66
2023/08/07 11:47:01;;;;;;;1.77;1.40;;;;;;;27.94;35.53;94536.56;6146494;28;109206;-65
2023/08/07 11:50:05;;;;;;;1.50;1.33;;;;;;;27.94;35.56;94531.16;6125347;28;109042;-66
2023/08/07 11:53:10;;;;;;;1.57;1.47;;;;;;;27.92;35.55;94547.66;6128348;28;109123;-66
2023/08/07 11:56:15;;;;;;;1.83;1.63;;;;;;;27.97;35.81;94551.97;6130010;28;109262;-65
2023/08/07 11:59:18;;;;;;;1.70;1.50;;;;;;;27.98;35.75;94532.78;6114823;28;109141;-65
2023/08/07 12:02:25;;;;;;;2.63;1.70;;;;;;;27.76;34.43;94520.03;6149011;28;109150;-64
2023/08/07 12:05:28;;;;;;;2.20;1.60;;;;;;;27.57;34.42;94528.13;6145461;28;109669;-64
2023/08/07 12:08:37;;;;;;;2.13;1.77;;;;;;;27.48;34.86;94514.88;6156404;28;109660;-64
2023/08/07 12:11:40;;;;;;;2.37;1.87;;;;;;;27.42;34.91;94525.13;6123170;28;109315;-73
2023/08/07 12:14:44;;;;;;;2.13;1.90;;;;;;;27.38;34.53;94521.56;6119822;28;109435;-73
2023/08/07 12:17:47;;;;;;;2.87;1.90;;;;;;;27.28;34.55;94516.78;6158109;28;109489;-72
2023/08/07 12:20:51;;;;;;;2.60;2.07;;;;;;;27.28;34.79;94516.00;6145305;28;109094;-71
2023/08/07 12:23:57;;;;;;;1.60;1.50;;;;;;;27.26;34.67;94516.34;6148823;28;109298;-64
2023/08/07 12:27:01;;;;;;;1.90;1.80;;;;;;;27.24;34.08;94521.28;6147115;28;109577;-63
2023/08/07 12:30:04;;;;;;;2.10;1.93;;;;;;;27.25;34.66;94517.44;6151831;28;109321;-62
2023/08/07 12:33:07;;;;;;;3.47;2.00;;;;;;;27.33;34.90;94508.44;6128295;28;109282;-63
2023/08/07 12:36:13;;;;;;;2.40;1.90;;;;;;;27.35;34.82;94508.06;6154462;28;109333;-63
2023/08/07 12:39:21;;;;;;;4.60;3.67;;;;;;;27.30;35.37;94506.44;6143585;28;109021;-61
2023/08/07 12:42:44;;;;;;;5.70;3.93;;;;;;;27.20;34.93;94501.59;6146362;28;110830;-63
2023/08/07 12:45:47;;;;;;;6.93;3.40;;;;;;;27.29;34.80;94507.59;6119611;28;109526;-63
2023/08/07 12:48:53;;;;;;;3.37;2.30;;;;;;;27.30;34.94;94508.34;6157463;28;109018;-62
2023/08/07 12:51:57;;;;;;;3.33;2.97;;;;;;;27.33;35.25;94519.16;6159043;28;109618;-63
2023/08/07 12:55:02;;;;;;;3.83;2.50;;;;;;;27.31;35.02;94513.38;6159487;28;110202;-62
2023/08/07 12:58:05;;;;;;;2.23;2.03;;;;;;;27.24;34.67;94523.97;6133059;28;109085;-63
2023/08/07 13:01:08;;;;;;;3.60;2.07;;;;;;;27.24;34.81;94523.19;6135166;28;110137;-62
2023/08/07 13:04:14;;;;;;;1.93;1.73;;;;;;;27.22;35.30;94518.16;6134819;28;108993;-62
2023/08/07 13:07:18;;;;;;;2.40;2.20;;;;;;;27.17;35.29;94519.19;6136052;28;110064;-65
2023/08/07 13:10:23;;;;;;;2.10;1.90;;;;;;;27.18;34.48;94517.28;6156863;28;109117;-62
2023/08/07 13:13:27;;;;;;;4.07;2.10;;;;;;;27.14;34.93;94527.19;6141409;28;109179;-63
2023/08/07 13:16:31;;;;;;;4.90;2.00;;;;;;;27.10;35.14;94526.31;6134131;28;109128;-63
2023/08/07 13:19:34;;;;;;;1.87;1.77;;;;;;;27.10;35.28;94518.28;6125235;28;109249;-62
2023/08/07 13:22:37;;;;;;;2.17;1.97;;;;;;;27.12;35.90;94519.47;6139021;28;109303;-62
2023/08/07 13:25:42;;;;;;;2.30;2.10;;;;;;;27.10;35.61;94531.69;6131456;28;109283;-63
2023/08/07 13:28:45;;;;;;;2.37;2.17;;;;;;;27.11;36.08;94533.25;6138798;28;109252;-62
2023/08/07 13:31:49;;;;;;;3.40;2.63;;;;;;;27.05;36.16;94534.63;6128958;28;109908;-62
2023/08/07 13:34:52;;;;;;;4.27;2.20;;;;;;;27.12;35.93;94532.91;6146273;28;109373;-71
2023/08/07 13:37:55;;;;;;;3.80;2.20;;;;;;;27.14;36.76;94527.97;6139924;28;109338;-71
2023/08/07 13:41:00;;;;;;;2.17;1.97;;;;;;;27.09;35.96;94532.84;6134818;28;109304;-67
2023/08/07 13:44:03;;;;;;;2.53;1.87;;;;;;;27.13;36.82;94534.47;6154168;28;109710;-71
2023/08/07 13:47:07;;;;;;;1.83;1.73;;;;;;;27.18;36.66;94533.41;6136622;28;110338;-71
2023/08/07 13:50:12;;;;;;;4.90;2.20;;;;;;;27.23;36.95;94532.38;6146487;28;109797;-70
2023/08/07 13:53:16;;;;;;;2.07;1.87;;;;;;;27.21;36.39;94540.75;6131229;28;109206;-71
2023/08/07 13:56:20;;;;;;;2.10;1.90;;;;;;;27.16;36.29;94541.03;6139341;28;109288;-72
2023/08/07 13:59:24;;;;;;;2.33;2.10;;;;;;;27.15;36.78;94558.28;6137787;28;109126;-71
2023/08/07 14:02:27;;;;;;;3.53;2.00;;;;;;;27.14;36.39;94559.41;6141656;28;109401;-72
2023/08/07 14:05:30;;;;;;;2.30;2.10;;;;;;;27.17;36.75;94558.72;6142874;28;111121;-72
2023/08/07 14:08:34;;;;;;;2.30;2.10;;;;;;;27.16;36.43;94575.97;6138569;28;109147;-72
2023/08/07 14:11:39;;;;;;;1.60;1.50;;;;;;;27.14;36.92;94575.53;6143240;28;110418;-72
2023/08/07 14:14:42;;;;;;;2.00;1.80;;;;;;;27.19;36.93;94567.19;6147590;28;108920;-71